createdAt,value
2022-11-24T00:01:30.704Z,5.5
2022-11-24T00:04:32.901Z,4.4
2022-11-24T00:07:34.700Z,4.1
2022-11-24T00:10:36.601Z,4.1
2022-11-24T00:13:38.549Z,3.8
2022-11-24T00:16:40.606Z,3.2
2022-11-24T00:19:42.482Z,3.8
2022-11-24T00:22:44.432Z,3.4
2022-11-24T00:25:46.388Z,3.5
2022-11-24T00:28:48.343Z,3.9
2022-11-24T00:31:50.324Z,3.5
2022-11-24T00:34:52.282Z,3.8
2022-11-24T00:37:54.248Z,3.5
2022-11-24T00:40:56.206Z,3.8
2022-11-24T00:43:58.157Z,3.5
2022-11-24T00:47:00.226Z,4.6
2022-11-24T00:50:02.138Z,4.5
2022-11-24T00:53:04.104Z,4.5
2022-11-24T00:56:06.052Z,4.7
2022-11-24T00:59:08.016Z,4.2
2022-11-24T01:02:10.250Z,4.2
2022-11-24T01:05:11.943Z,4
2022-11-24T01:08:13.897Z,4.5
2022-11-24T01:11:15.870Z,3.4
2022-11-24T01:14:17.813Z,4.8
2022-11-24T01:17:19.789Z,3.8
2022-11-24T01:20:21.739Z,4.1
2022-11-24T01:23:23.692Z,4.3
2022-11-24T01:26:25.656Z,4.1
2022-11-24T01:29:27.623Z,3.8
2022-11-24T01:32:29.585Z,3.9
2022-11-24T01:35:31.556Z,3.7
2022-11-24T01:38:33.505Z,4.5
2022-11-24T01:41:35.499Z,4.1
2022-11-24T01:44:37.432Z,4.9
2022-11-24T01:47:39.401Z,4.4
2022-11-24T01:50:41.349Z,4.7
2022-11-24T01:53:43.341Z,5.1
2022-11-24T01:56:45.281Z,4.8
2022-11-24T01:59:47.237Z,4.8
2022-11-24T02:02:49.255Z,4.1
2022-11-24T02:05:51.167Z,4.5
2022-11-24T02:08:53.117Z,3.7
2022-11-24T02:11:55.093Z,4.6
2022-11-24T02:14:57.036Z,3.9
2022-11-24T02:17:59.022Z,4.5
2022-11-24T02:21:00.957Z,3.9
2022-11-24T02:24:02.922Z,4
2022-11-24T02:27:04.885Z,4.3
2022-11-24T02:30:06.859Z,3.5
2022-11-24T02:33:08.812Z,5.1
2022-11-24T02:36:10.808Z,3.8
2022-11-24T02:39:12.723Z,3.6
2022-11-24T02:42:14.720Z,4.2
2022-11-24T02:45:16.657Z,3.4
2022-11-24T02:48:18.628Z,3.5
2022-11-24T02:51:20.574Z,3.6
2022-11-24T02:54:22.547Z,3.1
2022-11-24T02:57:24.519Z,3.4
2022-11-24T03:00:26.470Z,4.2
2022-11-24T03:03:28.449Z,3.9
2022-11-24T03:06:30.429Z,2.9
2022-11-24T03:09:32.363Z,4
2022-11-24T03:12:34.350Z,3.6
2022-11-24T03:15:36.379Z,3.6
2022-11-24T03:18:38.279Z,3.3
2022-11-24T03:21:40.230Z,5
2022-11-24T03:24:42.206Z,4.9
2022-11-24T03:27:44.152Z,3.9
2022-11-24T03:30:46.151Z,4.3
2022-11-24T03:33:48.067Z,4.4
2022-11-24T03:36:50.055Z,4.9
2022-11-24T03:39:52.024Z,4.8
2022-11-24T03:42:54.043Z,3.8
2022-11-24T03:45:55.984Z,3.7
2022-11-24T03:48:57.901Z,4.7
2022-11-24T03:52:03.824Z,4.3
2022-11-24T03:55:01.824Z,4.7
2022-11-24T03:58:03.808Z,4.8
2022-11-24T04:01:05.783Z,5.1
2022-11-24T04:04:07.765Z,4.3
2022-11-24T04:07:09.752Z,4.1
2022-11-24T04:10:11.676Z,4.5
2022-11-24T04:13:13.640Z,4.6
2022-11-24T04:16:15.646Z,4.9
2022-11-24T04:19:17.573Z,5.2
2022-11-24T04:22:19.545Z,4.7
2022-11-24T04:25:21.506Z,4.9
2022-11-24T04:28:23.460Z,4.4
2022-11-24T04:31:25.539Z,3.6
2022-11-24T04:34:27.399Z,3.7
2022-11-24T04:37:29.354Z,3.7
2022-11-24T04:40:31.311Z,5.4
2022-11-24T04:43:36.425Z,3.5
2022-11-24T04:46:35.298Z,3.5
2022-11-24T04:49:37.226Z,3.9
2022-11-24T04:52:39.194Z,3.3
2022-11-24T04:55:41.168Z,3.4
2022-11-24T04:58:43.166Z,4.1
2022-11-24T05:01:45.182Z,4.3
2022-11-24T05:04:47.165Z,3.5
2022-11-24T05:07:49.095Z,3.1
2022-11-24T05:10:51.018Z,4
2022-11-24T05:13:52.994Z,4.7
2022-11-24T05:16:54.974Z,3.9
2022-11-24T05:19:56.941Z,3.8
2022-11-24T05:22:58.883Z,3.4
2022-11-24T05:26:00.873Z,3.1
2022-11-24T05:29:02.826Z,4
2022-11-24T05:32:04.790Z,4.1
2022-11-24T05:35:06.748Z,4.1
2022-11-24T05:38:08.709Z,3.9
2022-11-24T05:41:10.693Z,4.8
2022-11-24T05:44:12.622Z,3.6
2022-11-24T05:47:14.607Z,3.3
2022-11-24T05:50:16.570Z,4.4
2022-11-24T05:53:18.518Z,3.8
2022-11-24T05:56:20.467Z,3.3
2022-11-24T05:59:22.438Z,3.4
2022-11-24T06:02:24.498Z,3.3
2022-11-24T06:05:26.340Z,3.3
2022-11-24T06:08:31.178Z,3.5
2022-11-24T06:11:30.264Z,3.9
2022-11-24T06:14:32.433Z,3.2
2022-11-24T06:17:34.182Z,3.4
2022-11-24T06:20:36.154Z,3.8
2022-11-24T06:23:38.107Z,3.7
2022-11-24T06:26:40.266Z,3
2022-11-24T06:29:42.044Z,2.9
2022-11-24T06:32:49.054Z,3.8
2022-11-24T06:35:46.017Z,3
2022-11-24T06:38:47.996Z,3.9
2022-11-24T06:41:49.947Z,3.2
2022-11-24T06:44:51.926Z,3.4
2022-11-24T06:47:53.894Z,3.1
2022-11-24T06:50:55.853Z,2.9
2022-11-24T06:53:57.824Z,3.6
2022-11-24T06:56:59.808Z,4.4
2022-11-24T07:00:01.781Z,3.2
2022-11-24T07:03:03.770Z,3.3
2022-11-24T07:06:05.717Z,3.1
2022-11-24T07:09:07.677Z,3.5
2022-11-24T07:12:09.641Z,3
2022-11-24T07:15:11.601Z,3.7
2022-11-24T07:18:13.582Z,3.2
2022-11-24T07:21:15.542Z,3.8
2022-11-24T07:24:17.530Z,3
2022-11-24T07:27:19.455Z,2.7
2022-11-24T07:30:21.415Z,4.2
2022-11-24T07:33:23.377Z,2.8
2022-11-24T07:36:25.342Z,4
2022-11-24T07:39:27.317Z,3.3
2022-11-24T07:42:29.276Z,3.8
2022-11-24T07:45:31.269Z,3.4
2022-11-24T07:48:33.200Z,2.9
2022-11-24T07:51:35.181Z,3.7
2022-11-24T07:54:37.253Z,3.1
2022-11-24T07:57:39.109Z,2.9
2022-11-24T08:00:41.082Z,3.1
2022-11-24T08:03:43.250Z,3.4
2022-11-24T08:06:47.427Z,3.6
2022-11-24T08:09:46.971Z,3.3
2022-11-24T08:12:48.937Z,2.8
2022-11-24T08:15:50.951Z,3.9
2022-11-24T08:18:52.909Z,3.6
2022-11-24T08:21:54.863Z,3
2022-11-24T08:24:56.835Z,3.2
2022-11-24T08:27:58.815Z,3.2
2022-11-24T08:31:00.780Z,2.6
2022-11-24T08:34:02.744Z,2.4
2022-11-24T08:37:04.692Z,3.3
2022-11-24T08:40:06.672Z,3
2022-11-24T08:43:08.878Z,3.1
2022-11-24T08:46:10.626Z,3.3
2022-11-24T08:49:12.576Z,2.4
2022-11-24T08:52:14.544Z,2.8
2022-11-24T08:55:16.533Z,3.8
2022-11-24T08:58:18.504Z,3.3
2022-11-24T09:01:20.557Z,3.6
2022-11-24T09:04:22.470Z,3
2022-11-24T09:07:24.417Z,2.7
2022-11-24T09:10:26.362Z,3.3
2022-11-24T09:13:28.332Z,3.2
2022-11-24T09:16:30.351Z,3.2
2022-11-24T09:19:32.550Z,2.5
2022-11-24T09:22:34.224Z,2.7
2022-11-24T09:25:36.245Z,3
2022-11-24T09:28:38.211Z,1.9
2022-11-24T09:31:40.211Z,2.3
2022-11-24T09:34:42.124Z,2.5
2022-11-24T09:37:44.099Z,2.1
2022-11-24T09:40:46.065Z,2.1
2022-11-24T09:43:48.022Z,2.7
2022-11-24T09:46:50.030Z,2.2
2022-11-24T09:49:52.001Z,2.1
2022-11-24T09:52:53.952Z,2.5
2022-11-24T09:55:56.076Z,2.2
2022-11-24T09:58:57.867Z,2.1
2022-11-24T10:01:59.929Z,2.4
2022-11-24T10:05:01.808Z,2.7
2022-11-24T10:08:03.796Z,2.1
2022-11-24T10:11:05.775Z,2.2
2022-11-24T10:14:07.734Z,2.7
2022-11-24T10:17:09.686Z,2.7
2022-11-24T10:20:11.662Z,2.7
2022-11-24T10:23:13.612Z,1.9
2022-11-24T10:26:15.578Z,2.3
2022-11-24T10:29:17.536Z,2.7
2022-11-24T10:32:19.503Z,1.8
2022-11-24T10:35:21.484Z,1.9
2022-11-24T10:38:23.463Z,2
2022-11-24T10:41:25.426Z,1.6
2022-11-24T10:44:27.560Z,1.7
2022-11-24T10:47:29.347Z,2.2
2022-11-24T10:50:31.300Z,1.9
2022-11-24T10:53:33.263Z,2
2022-11-24T10:56:35.221Z,2.2
2022-11-24T10:59:37.707Z,1.9
2022-11-24T11:02:39.277Z,2.1
2022-11-24T11:05:41.189Z,2.1
2022-11-24T11:08:43.246Z,2.5
2022-11-24T11:11:45.205Z,2.1
2022-11-24T11:14:47.201Z,1.5
2022-11-24T11:17:49.098Z,1.6
2022-11-24T11:20:51.095Z,1.9
2022-11-24T11:23:53.056Z,1.7
2022-11-24T11:26:55.019Z,1.9
2022-11-24T11:36:00.923Z,2.1
2022-11-24T11:39:02.872Z,1.9
2022-11-24T11:42:04.827Z,2.3
2022-11-24T11:45:06.777Z,1.8
2022-11-24T11:48:08.783Z,1.8
2022-11-24T11:51:23.545Z,1.9
2022-11-24T11:54:12.715Z,2.5
2022-11-24T11:57:14.673Z,2
2022-11-24T12:00:16.679Z,2.2
2022-11-24T12:03:18.697Z,1.8
2022-11-24T12:06:20.561Z,1.7
2022-11-24T12:09:22.556Z,1.7
2022-11-24T12:12:24.587Z,1.7
2022-11-24T12:15:26.496Z,1.6
2022-11-24T12:18:55.640Z,1.8
2022-11-24T12:21:30.433Z,1.5
2022-11-24T12:24:32.403Z,2.2
2022-11-24T12:27:34.342Z,2
2022-11-24T12:30:36.330Z,1.7
2022-11-24T12:33:38.282Z,1.3
2022-11-24T12:36:40.245Z,1.1
2022-11-24T12:39:42.285Z,1.8
2022-11-24T12:42:44.207Z,1.7
2022-11-24T12:45:46.180Z,2.3
2022-11-24T12:48:48.122Z,1.4
2022-11-24T12:51:50.094Z,2.9
2022-11-24T12:54:52.052Z,1.9
2022-11-24T12:57:54.029Z,1.4
2022-11-24T13:00:55.978Z,1.8
2022-11-24T13:03:57.939Z,1.3
2022-11-24T13:06:59.889Z,1.7
2022-11-24T13:10:01.855Z,1.7
2022-11-24T13:13:03.810Z,1.2
2022-11-24T13:16:59.199Z,1.9
2022-11-24T13:19:07.765Z,1.5
2022-11-24T13:22:09.694Z,1.9
2022-11-24T13:25:11.652Z,1.5
2022-11-24T13:28:14.101Z,1.6
2022-11-24T13:31:15.677Z,1.3
2022-11-24T13:34:17.561Z,1.8
2022-11-24T13:37:26.389Z,1.4
2022-11-24T13:40:21.493Z,1.7
2022-11-24T13:43:23.461Z,1.6
2022-11-24T13:46:25.494Z,1.4
2022-11-24T13:49:27.392Z,1.5
2022-11-24T13:52:29.389Z,1.6
2022-11-24T13:55:31.345Z,1.4
2022-11-24T13:58:33.299Z,1.3
2022-11-24T14:01:35.284Z,1.5
2022-11-24T14:04:37.212Z,1.5
2022-11-24T14:07:39.228Z,1.8
2022-11-24T14:10:41.152Z,1
2022-11-24T14:13:43.116Z,1.2
2022-11-24T14:16:45.116Z,1.7
2022-11-24T14:19:47.039Z,1.6
2022-11-24T14:22:49.015Z,1.2
2022-11-24T14:25:51.012Z,1.3
2022-11-24T14:28:52.934Z,1.4
2022-11-24T14:31:54.915Z,1.5
2022-11-24T14:34:56.986Z,1.1
2022-11-24T14:37:58.822Z,1.4
2022-11-24T14:41:00.831Z,1.4
2022-11-24T14:44:02.775Z,1.4
2022-11-24T14:47:04.857Z,1
2022-11-24T14:50:06.822Z,1.3
2022-11-24T14:53:08.699Z,1.5
2022-11-24T14:56:10.759Z,1.4
2022-11-24T14:59:12.629Z,1.6
2022-11-24T15:02:14.689Z,1.3
2022-11-24T15:05:16.594Z,1.2
2022-11-24T15:08:18.547Z,1.2
2022-11-24T15:11:20.531Z,2
2022-11-24T15:14:22.531Z,1.8
2022-11-24T15:17:24.484Z,2
2022-11-24T15:20:26.442Z,7.8
2022-11-24T15:23:28.429Z,2.8
2022-11-24T15:26:32.180Z,2.7
2022-11-24T15:29:32.352Z,3.3
2022-11-24T15:32:34.315Z,2.3
2022-11-24T15:35:36.283Z,2.7
2022-11-24T15:38:38.225Z,3
2022-11-24T15:41:40.196Z,2.9
2022-11-24T15:44:42.164Z,3.6
2022-11-24T15:47:44.129Z,4.1
2022-11-24T15:50:46.099Z,3.1
2022-11-24T15:53:48.070Z,2.7
2022-11-24T15:56:50.011Z,3.4
2022-11-24T15:59:51.976Z,3.7
2022-11-24T16:02:53.936Z,3.2
2022-11-24T16:05:55.901Z,2.8
2022-11-24T16:08:57.838Z,3.5
2022-11-24T16:11:59.802Z,3
2022-11-24T16:15:01.769Z,3.1
2022-11-24T16:18:03.764Z,3.4
2022-11-24T16:21:05.747Z,2.8
2022-11-24T16:24:07.733Z,3.1
2022-11-24T16:27:09.705Z,2.8
2022-11-24T16:30:11.650Z,2.8
2022-11-24T16:33:13.599Z,2.8
2022-11-24T16:36:15.571Z,6.3
2022-11-24T16:39:17.523Z,2.4
2022-11-24T16:42:19.499Z,2.6
2022-11-24T16:45:21.468Z,2.5
2022-11-24T16:48:23.434Z,2.7
2022-11-24T16:51:27.756Z,2.5
2022-11-24T16:54:27.367Z,1.9
2022-11-24T16:57:29.293Z,2.3
2022-11-24T17:00:31.265Z,2.5
2022-11-24T17:03:33.221Z,3.3
2022-11-24T17:06:35.206Z,2.5
2022-11-24T17:09:40.474Z,2.1
2022-11-24T17:12:39.156Z,2.5
2022-11-24T17:15:46.295Z,2.5
2022-11-24T17:18:43.090Z,2.7
2022-11-24T17:21:45.067Z,1.9
2022-11-24T17:24:47.001Z,2.3
2022-11-24T17:27:49.032Z,1.9
2022-11-24T17:30:50.997Z,1.9
2022-11-24T17:33:52.965Z,2.3
2022-11-24T17:36:54.911Z,2.4
2022-11-24T17:40:20.579Z,1.7
2022-11-24T17:42:58.857Z,2.1
2022-11-24T17:46:00.877Z,2.4
2022-11-24T17:49:02.775Z,2.8
2022-11-24T17:52:04.743Z,2.8
2022-11-24T17:55:06.695Z,2.1
2022-11-24T17:58:08.662Z,2
2022-11-24T18:01:10.724Z,2.4
2022-11-24T18:04:12.609Z,2.3
2022-11-24T18:07:14.642Z,2.3
2022-11-24T18:10:16.537Z,2.4
2022-11-24T18:13:40.898Z,2.4
2022-11-24T18:16:20.522Z,2.9
2022-11-24T18:19:22.435Z,2.6
2022-11-24T18:22:43.292Z,2.1
2022-11-24T18:25:26.355Z,2.7
2022-11-24T18:28:28.320Z,2.2
2022-11-24T18:31:30.303Z,2.3
2022-11-24T18:34:32.356Z,3.1
2022-11-24T18:37:34.209Z,2.4
2022-11-24T18:40:36.158Z,3.2
2022-11-24T18:43:38.132Z,3.6
2022-11-24T18:46:40.127Z,3
2022-11-24T18:49:42.238Z,3.6
2022-11-24T18:52:44.026Z,3.2
2022-11-24T18:55:46.001Z,3.1
2022-11-24T18:58:47.960Z,2.8
2022-11-24T19:01:50.016Z,3.4
2022-11-24T19:04:51.976Z,3.4
2022-11-24T19:07:53.903Z,3.8
2022-11-24T19:10:55.786Z,2.7
2022-11-24T19:14:00.748Z,3
2022-11-24T19:17:02.745Z,3.3
2022-11-24T19:20:04.699Z,3.3
2022-11-24T19:23:06.670Z,3.2
2022-11-24T19:26:08.632Z,3.2
2022-11-24T19:29:10.610Z,2.5
2022-11-24T19:32:12.593Z,3.3
2022-11-24T19:35:14.521Z,2.8
2022-11-24T19:38:16.484Z,2.9
2022-11-24T19:41:18.433Z,3.2
2022-11-24T19:44:20.395Z,3.2
2022-11-24T19:47:22.368Z,4
2022-11-24T19:50:24.322Z,3.3
2022-11-24T19:53:26.306Z,3.6
2022-11-24T19:56:28.244Z,3.3
2022-11-24T19:59:30.217Z,3.3
2022-11-24T20:02:32.208Z,3.5
2022-11-24T20:05:34.144Z,3.6
2022-11-24T20:08:36.116Z,4.2
2022-11-24T20:11:38.072Z,3.3
2022-11-24T20:14:40.129Z,3.8
2022-11-24T20:17:42.254Z,4.2
2022-11-24T20:20:43.994Z,4.5
2022-11-24T20:23:45.932Z,4.2
2022-11-24T20:26:47.918Z,3.6
2022-11-24T20:29:49.895Z,3.9
2022-11-24T20:32:51.852Z,4
2022-11-24T20:35:53.839Z,4
2022-11-24T20:38:55.789Z,3.3
2022-11-24T20:41:57.780Z,3.9
2022-11-24T20:44:59.702Z,3.6
2022-11-24T20:48:01.662Z,4
2022-11-24T20:51:03.640Z,4.3
2022-11-24T20:54:05.611Z,3.8
2022-11-24T20:57:07.549Z,4.3
2022-11-24T21:00:09.532Z,4.6
2022-11-24T21:03:11.464Z,4.2
2022-11-24T21:06:13.447Z,4.4
2022-11-24T21:09:15.551Z,5
2022-11-24T21:12:17.358Z,4.9
2022-11-24T21:15:19.337Z,6.7
2022-11-24T21:18:21.298Z,5.3
2022-11-24T21:21:23.280Z,5.7
2022-11-24T21:24:25.247Z,6.2
2022-11-24T21:27:27.214Z,6.3
2022-11-24T21:30:29.173Z,6.7
2022-11-24T21:33:31.137Z,5.3
2022-11-24T21:36:33.132Z,7.2
2022-11-24T21:39:35.195Z,6.7
2022-11-24T21:42:37.123Z,7.5
2022-11-24T21:45:39.077Z,7
2022-11-24T21:48:41.020Z,6.7
2022-11-24T21:51:43.122Z,6.5
2022-11-24T21:54:44.997Z,7
2022-11-24T21:57:46.947Z,6.7
2022-11-24T22:00:48.944Z,7.4
2022-11-24T22:03:50.871Z,6.8
2022-11-24T22:06:52.828Z,6.4
2022-11-24T22:09:54.811Z,6.8
2022-11-24T22:12:56.762Z,7.4
2022-11-24T22:15:58.775Z,6.8
2022-11-24T22:19:00.686Z,7.4
2022-11-24T22:22:02.652Z,6.8
2022-11-24T22:25:04.618Z,7.1
2022-11-24T22:28:06.569Z,7.4
2022-11-24T22:31:08.549Z,6.9
2022-11-24T22:34:10.552Z,8.9
2022-11-24T22:37:12.470Z,7.6
2022-11-24T22:40:14.430Z,7.5
2022-11-24T22:43:20.176Z,7.6
2022-11-24T22:46:18.372Z,7.2
2022-11-24T22:49:20.333Z,8.4
2022-11-24T22:52:22.314Z,8.9
2022-11-24T22:55:24.254Z,8
2022-11-24T22:58:26.231Z,8.1
2022-11-24T23:01:28.201Z,8.9
2022-11-24T23:04:30.228Z,7.5
2022-11-24T23:07:32.159Z,8.3
2022-11-24T23:10:34.076Z,7.8
2022-11-24T23:13:36.032Z,7.9
2022-11-24T23:16:38.030Z,7.9
2022-11-24T23:19:40.004Z,7.6
2022-11-24T23:22:41.959Z,8
2022-11-24T23:25:43.921Z,8.7
2022-11-24T23:28:45.898Z,7.8
2022-11-24T23:31:47.925Z,7.9
2022-11-24T23:34:49.824Z,7.9
2022-11-24T23:38:06.844Z,7.9
2022-11-24T23:40:53.746Z,8
2022-11-24T23:43:55.694Z,8.2
2022-11-24T23:46:57.684Z,8.1
2022-11-24T23:49:59.660Z,9.6
2022-11-24T23:53:01.618Z,8.4
2022-11-24T23:56:03.567Z,7.9
2022-11-24T23:59:05.556Z,8.5
